createdAt,value
2023-02-27T00:00:26.004Z,0.90
2023-02-27T00:02:53.525Z,0.90
2023-02-27T00:05:22.836Z,0.90
2023-02-27T00:07:50.240Z,0.90
2023-02-27T00:10:18.119Z,0.90
2023-02-27T00:12:45.450Z,0.80
2023-02-27T00:15:16.310Z,0.80
2023-02-27T00:17:43.700Z,0.80
2023-02-27T00:20:13.138Z,0.80
2023-02-27T00:22:41.384Z,0.80
2023-02-27T00:25:09.611Z,0.80
2023-02-27T00:27:37.120Z,0.80
2023-02-27T00:30:06.940Z,0.70
2023-02-27T00:32:34.030Z,0.80
2023-02-27T00:35:00.923Z,0.80
2023-02-27T00:37:27.858Z,0.80
2023-02-27T00:39:54.912Z,0.80
2023-02-27T00:42:22.223Z,0.80
2023-02-27T00:44:49.251Z,0.80
2023-02-27T00:47:16.103Z,0.80
2023-02-27T00:49:42.925Z,0.80
2023-02-27T00:52:09.850Z,0.70
2023-02-27T00:54:37.875Z,0.70
2023-02-27T00:57:05.030Z,0.70
2023-02-27T00:59:33.091Z,0.80
2023-02-27T01:02:00.263Z,0.70
2023-02-27T01:04:27.412Z,0.70
2023-02-27T01:06:54.519Z,0.70
2023-02-27T01:09:21.429Z,0.70
2023-02-27T01:11:48.423Z,0.80
2023-02-27T01:14:15.467Z,0.70
2023-02-27T01:16:43.580Z,0.70
2023-02-27T01:19:10.888Z,0.70
2023-02-27T01:21:37.884Z,0.70
2023-02-27T01:24:05.380Z,0.70
2023-02-27T01:26:32.505Z,0.70
2023-02-27T01:28:59.650Z,0.60
2023-02-27T01:31:28.053Z,0.60
2023-02-27T01:33:56.042Z,0.60
2023-02-27T01:36:22.936Z,0.60
2023-02-27T01:38:50.992Z,0.60
2023-02-27T01:41:17.837Z,0.60
2023-02-27T01:43:58.712Z,0.60
2023-02-27T01:46:26.145Z,0.60
2023-02-27T01:48:59.667Z,0.60
2023-02-27T01:51:31.278Z,0.60
2023-02-27T01:53:59.380Z,0.60
2023-02-27T01:56:29.691Z,0.60
2023-02-27T01:59:07.071Z,0.60
2023-02-27T02:01:35.235Z,0.60
2023-02-27T02:04:21.482Z,0.60
2023-02-27T02:06:58.145Z,0.60
2023-02-27T02:09:26.205Z,0.60
2023-02-27T02:11:53.856Z,0.50
2023-02-27T02:14:21.076Z,0.50
2023-02-27T02:17:05.238Z,0.60
2023-02-27T02:19:40.368Z,0.50
2023-02-27T02:22:49.146Z,0.50
2023-02-27T02:25:22.930Z,0.50
2023-02-27T02:28:10.801Z,0.50
2023-02-27T02:31:16.637Z,0.50
2023-02-27T02:34:25.794Z,0.50
2023-02-27T02:37:26.919Z,0.50
2023-02-27T02:40:18.466Z,0.40
2023-02-27T02:42:59.773Z,0.40
2023-02-27T02:45:38.843Z,0.50
2023-02-27T02:48:27.891Z,0.40
2023-02-27T02:51:36.281Z,0.40
2023-02-27T02:54:25.768Z,0.50
2023-02-27T02:57:29.422Z,0.50
2023-02-27T03:00:06.942Z,0.50
2023-02-27T03:02:40.063Z,0.50
2023-02-27T03:05:10.087Z,0.50
2023-02-27T03:07:50.859Z,0.50
2023-02-27T03:10:22.159Z,0.50
2023-02-27T03:12:56.369Z,0.50
2023-02-27T03:15:35.787Z,0.50
2023-02-27T03:18:22.083Z,0.50
2023-02-27T03:21:10.696Z,0.50
2023-02-27T03:23:48.925Z,0.50
2023-02-27T03:26:23.355Z,0.40
2023-02-27T03:29:02.220Z,0.50
2023-02-27T03:31:41.241Z,0.40
2023-02-27T03:34:33.181Z,0.50
2023-02-27T03:37:15.010Z,0.40
2023-02-27T03:40:31.494Z,0.40
2023-02-27T03:43:08.904Z,0.40
2023-02-27T03:45:49.664Z,0.40
2023-02-27T03:48:16.654Z,0.40
2023-02-27T03:50:43.822Z,0.40
2023-02-27T03:53:28.056Z,0.40
2023-02-27T03:55:59.625Z,0.50
2023-02-27T03:58:26.985Z,0.40
2023-02-27T04:00:53.893Z,0.50
2023-02-27T04:03:21.503Z,0.50
2023-02-27T04:05:48.516Z,0.50
2023-02-27T04:08:32.280Z,0.50
2023-02-27T04:11:39.996Z,0.40
2023-02-27T04:14:12.842Z,0.50
2023-02-27T04:17:07.513Z,0.40
2023-02-27T04:20:10.709Z,0.40
2023-02-27T04:22:43.258Z,0.40
2023-02-27T04:25:42.766Z,0.40
2023-02-27T04:28:18.615Z,0.40
2023-02-27T04:31:20.773Z,0.40
2023-02-27T04:34:05.656Z,0.40
2023-02-27T04:36:48.125Z,0.40
2023-02-27T04:39:34.444Z,0.30
2023-02-27T04:42:10.522Z,0.40
2023-02-27T04:44:39.737Z,0.40
2023-02-27T04:47:09.816Z,0.40
2023-02-27T04:49:47.347Z,0.40
2023-02-27T04:52:30.988Z,0.40
2023-02-27T04:55:16.306Z,0.40
2023-02-27T04:57:53.886Z,0.40
2023-02-27T05:00:24.208Z,0.40
2023-02-27T05:03:00.167Z,0.40
2023-02-27T05:05:31.763Z,0.40
2023-02-27T05:08:26.936Z,0.40
2023-02-27T05:11:05.984Z,0.40
2023-02-27T05:13:47.504Z,0.30
2023-02-27T05:16:33.272Z,0.40
2023-02-27T05:19:01.901Z,0.30
2023-02-27T05:21:34.693Z,0.30
2023-02-27T05:24:10.803Z,0.40
2023-02-27T05:27:10.713Z,0.40
2023-02-27T05:30:06.065Z,0.40
2023-02-27T05:32:33.680Z,0.30
2023-02-27T05:35:24.316Z,0.30
2023-02-27T05:38:12.120Z,0.30
2023-02-27T05:40:44.320Z,0.30
2023-02-27T05:43:16.578Z,0.30
2023-02-27T05:45:47.526Z,0.30
2023-02-27T05:48:22.540Z,0.30
2023-02-27T05:50:52.465Z,0.30
2023-02-27T05:53:21.740Z,0.30
2023-02-27T05:55:54.456Z,0.30
2023-02-27T05:58:24.296Z,0.30
2023-02-27T06:01:04.816Z,0.30
2023-02-27T06:03:36.635Z,0.30
2023-02-27T06:06:06.513Z,0.30
2023-02-27T06:08:33.985Z,0.30
2023-02-27T06:11:00.928Z,0.30
2023-02-27T06:13:27.757Z,0.40
2023-02-27T06:15:54.648Z,0.50
2023-02-27T06:18:21.884Z,0.40
2023-02-27T06:20:50.132Z,0.50
2023-02-27T06:23:17.400Z,0.50
2023-02-27T06:25:44.688Z,0.50
2023-02-27T06:28:12.031Z,0.50
2023-02-27T06:30:39.309Z,0.50
2023-02-27T06:33:06.372Z,0.50
2023-02-27T06:35:34.486Z,0.50
2023-02-27T06:38:01.576Z,0.50
2023-02-27T06:40:28.619Z,0.60
2023-02-27T06:42:55.415Z,0.50
2023-02-27T06:45:24.261Z,0.60
2023-02-27T06:47:51.119Z,0.70
2023-02-27T06:50:18.000Z,0.70
2023-02-27T06:52:44.806Z,0.70
2023-02-27T06:55:11.984Z,0.80
2023-02-27T06:57:38.933Z,0.80
2023-02-27T07:00:07.228Z,0.70
2023-02-27T07:02:34.080Z,0.80
2023-02-27T07:05:00.925Z,0.80
2023-02-27T07:07:38.020Z,0.80
2023-02-27T07:10:08.136Z,0.80
2023-02-27T07:12:35.009Z,0.80
2023-02-27T07:15:01.894Z,0.80
2023-02-27T07:17:28.737Z,0.70
2023-02-27T07:19:55.620Z,0.70
2023-02-27T07:22:22.478Z,0.80
2023-02-27T07:24:49.303Z,0.80
2023-02-27T07:27:16.255Z,0.80
2023-02-27T07:29:43.250Z,0.80
2023-02-27T07:32:11.789Z,0.80
2023-02-27T07:34:38.709Z,0.80
2023-02-27T07:37:05.559Z,0.80
2023-02-27T07:39:32.431Z,0.90
2023-02-27T07:42:00.089Z,0.90
2023-02-27T07:44:27.929Z,1.00
2023-02-27T07:46:54.894Z,0.90
2023-02-27T07:49:21.758Z,1.00
2023-02-27T07:51:48.546Z,1.00
2023-02-27T07:54:15.415Z,0.90
2023-02-27T07:56:42.222Z,1.00
2023-02-27T07:59:09.139Z,0.90
2023-02-27T08:01:35.973Z,0.90
2023-02-27T08:04:02.935Z,0.90
2023-02-27T08:06:30.059Z,0.90
2023-02-27T08:08:57.364Z,0.90
2023-02-27T08:11:24.479Z,0.90
2023-02-27T08:14:06.669Z,0.90
2023-02-27T08:16:33.873Z,0.90
2023-02-27T08:19:01.346Z,0.80
2023-02-27T08:21:29.134Z,0.90
2023-02-27T08:23:56.282Z,0.90
2023-02-27T08:26:23.546Z,1.00
2023-02-27T08:28:50.688Z,1.00
2023-02-27T08:31:17.549Z,1.10
2023-02-27T08:33:44.365Z,1.10
2023-02-27T08:36:11.287Z,1.10
2023-02-27T08:38:38.136Z,1.20
2023-02-27T08:41:05.106Z,1.20
2023-02-27T08:43:31.977Z,1.30
2023-02-27T08:45:59.055Z,1.40
2023-02-27T08:48:26.119Z,1.50
2023-02-27T08:50:53.199Z,1.50
2023-02-27T08:53:20.079Z,1.40
2023-02-27T08:55:51.593Z,1.50
2023-02-27T08:58:18.922Z,1.40
2023-02-27T09:00:46.544Z,1.40
2023-02-27T09:03:13.698Z,1.40
2023-02-27T09:05:42.047Z,1.50
2023-02-27T09:08:09.414Z,1.60
2023-02-27T09:10:36.705Z,1.60
2023-02-27T09:13:03.548Z,1.70
2023-02-27T09:15:32.237Z,1.80
2023-02-27T09:18:03.114Z,1.80
2023-02-27T09:20:35.735Z,1.80
2023-02-27T09:23:03.380Z,1.80
2023-02-27T09:25:30.770Z,1.80
2023-02-27T09:27:57.863Z,1.80
2023-02-27T09:30:25.381Z,1.80
2023-02-27T09:32:52.294Z,1.80
2023-02-27T09:35:22.440Z,1.80
2023-02-27T09:37:49.733Z,1.80
2023-02-27T09:40:26.665Z,1.70
2023-02-27T09:43:00.015Z,1.70
2023-02-27T09:45:33.324Z,1.60
2023-02-27T09:48:10.603Z,1.60
2023-02-27T09:50:44.665Z,1.60
2023-02-27T09:53:27.171Z,1.70
2023-02-27T09:55:57.829Z,1.70
2023-02-27T09:58:40.580Z,1.80
2023-02-27T10:01:20.059Z,1.80
2023-02-27T10:03:55.532Z,1.90
2023-02-27T10:06:27.847Z,1.90
2023-02-27T10:09:25.538Z,1.90
2023-02-27T10:12:24.408Z,1.80
2023-02-27T10:14:57.625Z,1.90
2023-02-27T10:17:33.435Z,1.90
2023-02-27T10:20:02.904Z,1.90
2023-02-27T10:22:35.242Z,1.80
2023-02-27T10:25:29.729Z,1.80
2023-02-27T10:28:08.945Z,1.80
2023-02-27T10:30:36.211Z,1.80
2023-02-27T10:33:05.918Z,1.90
2023-02-27T10:35:36.432Z,1.90
2023-02-27T10:38:22.503Z,1.90
2023-02-27T10:40:49.880Z,2.00
2023-02-27T10:43:19.322Z,2.00
2023-02-27T10:45:46.276Z,2.00
2023-02-27T10:48:14.637Z,2.10
2023-02-27T10:50:44.575Z,2.00
2023-02-27T10:53:26.252Z,1.90
2023-02-27T10:56:08.446Z,2.00
2023-02-27T10:58:36.953Z,2.00
2023-02-27T11:01:10.463Z,1.90
2023-02-27T11:03:41.540Z,2.00
2023-02-27T11:06:24.656Z,2.00
2023-02-27T11:09:20.980Z,2.10
2023-02-27T11:11:48.417Z,2.20
2023-02-27T11:14:35.518Z,2.30
2023-02-27T11:17:03.267Z,2.40
2023-02-27T11:19:34.128Z,2.60
2023-02-27T11:22:03.969Z,2.80
2023-02-27T11:24:31.557Z,2.90
2023-02-27T11:27:06.351Z,3.20
2023-02-27T11:29:36.292Z,3.50
2023-02-27T11:32:13.864Z,3.70
2023-02-27T11:34:52.321Z,3.90
2023-02-27T11:37:36.360Z,3.90
2023-02-27T11:40:09.486Z,3.80
2023-02-27T11:42:41.795Z,3.50
2023-02-27T11:46:20.352Z,3.20
2023-02-27T11:48:35.283Z,3.00
2023-02-27T11:51:10.960Z,3.00
2023-02-27T11:53:37.716Z,3.10
2023-02-27T11:56:13.243Z,3.20
2023-02-27T11:58:48.550Z,3.20
2023-02-27T12:01:25.778Z,3.20
2023-02-27T12:04:04.406Z,3.20
2023-02-27T12:07:10.711Z,3.10
2023-02-27T12:09:53.507Z,3.30
2023-02-27T12:12:40.519Z,3.50
2023-02-27T12:15:46.203Z,3.70
2023-02-27T12:18:12.958Z,3.90
2023-02-27T12:20:45.382Z,3.90
2023-02-27T12:23:42.669Z,3.80
2023-02-27T12:26:37.204Z,3.60
2023-02-27T12:29:15.049Z,3.40
2023-02-27T12:31:56.827Z,3.30
2023-02-27T12:34:29.229Z,3.20
2023-02-27T12:37:10.600Z,3.10
2023-02-27T12:39:38.426Z,3.10
2023-02-27T12:42:20.283Z,3.10
2023-02-27T12:45:08.702Z,3.10
2023-02-27T12:47:53.578Z,3.10
2023-02-27T12:50:23.109Z,3.00
2023-02-27T12:53:29.395Z,2.90
2023-02-27T12:56:09.192Z,2.90
2023-02-27T12:59:17.235Z,2.80
2023-02-27T13:01:57.566Z,2.70
2023-02-27T13:04:58.657Z,2.60
2023-02-27T13:07:37.402Z,2.50
2023-02-27T13:10:21.932Z,2.50
2023-02-27T13:12:58.936Z,2.40
2023-02-27T13:15:35.212Z,2.30
2023-02-27T13:18:23.708Z,2.20
2023-02-27T13:21:00.617Z,2.10
2023-02-27T13:23:48.523Z,2.10
2023-02-27T13:26:34.417Z,2.10
2023-02-27T13:29:01.880Z,2.00
2023-02-27T13:31:55.215Z,1.90
2023-02-27T13:34:39.695Z,1.90
2023-02-27T13:37:08.868Z,1.90
2023-02-27T13:39:47.450Z,1.90
2023-02-27T13:42:26.203Z,1.90
2023-02-27T13:44:53.080Z,1.90
2023-02-27T13:47:38.779Z,1.90
2023-02-27T13:50:25.552Z,2.00
2023-02-27T13:52:53.116Z,2.00
2023-02-27T13:55:31.174Z,2.10
2023-02-27T13:58:00.835Z,2.10
2023-02-27T14:00:38.154Z,2.20
2023-02-27T14:03:17.425Z,2.10
2023-02-27T14:05:47.118Z,2.10
2023-02-27T14:08:25.557Z,2.10
2023-02-27T14:11:17.862Z,2.10
2023-02-27T14:13:50.872Z,2.00
2023-02-27T14:16:40.045Z,1.90
2023-02-27T14:19:16.018Z,1.90
2023-02-27T14:21:58.043Z,1.90
2023-02-27T14:24:49.734Z,1.90
2023-02-27T14:27:49.915Z,1.90
2023-02-27T14:30:32.020Z,1.80
2023-02-27T14:33:39.098Z,1.80
2023-02-27T14:36:09.788Z,1.70
2023-02-27T14:38:38.341Z,1.70
2023-02-27T14:41:23.374Z,1.70
2023-02-27T14:43:56.780Z,1.70
2023-02-27T14:46:23.814Z,1.80
2023-02-27T14:49:02.681Z,1.80
2023-02-27T14:51:35.897Z,1.80
2023-02-27T14:54:13.261Z,1.80
2023-02-27T14:56:40.924Z,1.70
2023-02-27T14:59:34.348Z,1.70
2023-02-27T15:02:04.277Z,1.70
2023-02-27T15:04:33.282Z,1.70
2023-02-27T15:07:01.075Z,1.70
2023-02-27T15:09:28.082Z,1.80
2023-02-27T15:12:03.890Z,1.70
2023-02-27T15:14:35.630Z,1.70
2023-02-27T15:17:03.337Z,1.70
2023-02-27T15:19:30.940Z,1.60
2023-02-27T15:22:05.183Z,1.50
2023-02-27T15:24:47.858Z,1.50
2023-02-27T15:27:19.839Z,1.40
2023-02-27T15:30:08.760Z,1.40
2023-02-27T15:32:42.948Z,1.30
2023-02-27T15:35:36.606Z,1.40
2023-02-27T15:38:03.535Z,1.40
2023-02-27T15:40:33.098Z,1.50
2023-02-27T15:43:01.173Z,1.50
2023-02-27T15:45:35.666Z,1.50
2023-02-27T15:48:03.902Z,1.40
2023-02-27T15:50:37.545Z,1.40
2023-02-27T15:53:09.620Z,1.40
2023-02-27T15:55:40.869Z,1.40
2023-02-27T15:58:29.634Z,1.40
2023-02-27T16:01:06.395Z,1.40
2023-02-27T16:03:37.898Z,1.30
2023-02-27T16:06:15.888Z,1.40
2023-02-27T16:08:48.272Z,1.30
2023-02-27T16:11:23.977Z,1.30
2023-02-27T16:13:51.317Z,1.30
2023-02-27T16:16:38.840Z,1.30
2023-02-27T16:19:28.047Z,1.20
2023-02-27T16:22:14.314Z,1.20
2023-02-27T16:24:41.805Z,1.20
2023-02-27T16:27:19.084Z,1.10
2023-02-27T16:29:46.994Z,1.10
2023-02-27T16:32:29.536Z,1.10
2023-02-27T16:35:14.969Z,1.10
2023-02-27T16:37:43.445Z,1.10
2023-02-27T16:40:16.609Z,1.10
2023-02-27T16:42:44.974Z,1.10
2023-02-27T16:45:16.509Z,1.10
2023-02-27T16:47:43.801Z,1.10
2023-02-27T16:50:34.806Z,1.20
2023-02-27T16:53:01.671Z,1.20
2023-02-27T16:55:28.875Z,1.10
2023-02-27T16:57:56.103Z,1.10
2023-02-27T17:00:23.241Z,1.00
2023-02-27T17:02:51.220Z,1.00
2023-02-27T17:05:18.977Z,1.00
2023-02-27T17:07:47.136Z,1.00
2023-02-27T17:10:19.633Z,0.90
2023-02-27T17:12:48.006Z,0.90
2023-02-27T17:15:15.462Z,0.90
2023-02-27T17:17:42.997Z,0.90
2023-02-27T17:20:11.344Z,1.00
2023-02-27T17:22:40.672Z,0.90
2023-02-27T17:25:08.618Z,0.90
2023-02-27T17:27:35.789Z,0.90
2023-02-27T17:30:02.872Z,0.90
2023-02-27T17:32:29.883Z,0.80
2023-02-27T17:34:57.164Z,0.80
2023-02-27T17:37:25.146Z,0.80
2023-02-27T17:39:52.353Z,0.80
2023-02-27T17:42:19.527Z,0.80
2023-02-27T17:44:47.661Z,0.80
2023-02-27T17:47:15.377Z,0.80
2023-02-27T17:49:43.425Z,0.90
2023-02-27T17:52:12.506Z,0.90
2023-02-27T17:54:40.773Z,0.80
2023-02-27T17:57:10.491Z,0.80
2023-02-27T17:59:37.586Z,0.80
2023-02-27T18:02:04.637Z,0.80
2023-02-27T18:04:31.747Z,0.80
2023-02-27T18:06:58.724Z,0.80
2023-02-27T18:09:25.740Z,0.80
2023-02-27T18:11:53.940Z,0.80
2023-02-27T18:14:21.133Z,0.80
2023-02-27T18:16:49.113Z,0.80
2023-02-27T18:19:17.594Z,0.90
2023-02-27T18:21:47.252Z,0.80
2023-02-27T18:24:16.087Z,0.80
2023-02-27T18:26:43.041Z,0.80
2023-02-27T18:29:11.734Z,0.80
2023-02-27T18:31:44.591Z,0.80
2023-02-27T18:34:12.188Z,0.90
2023-02-27T18:36:39.508Z,0.80
2023-02-27T18:39:07.300Z,0.90
2023-02-27T18:41:35.212Z,0.80
2023-02-27T18:44:03.964Z,0.90
2023-02-27T18:46:34.014Z,0.80
2023-02-27T18:49:01.573Z,0.90
2023-02-27T18:51:28.515Z,0.80
2023-02-27T18:53:55.631Z,0.80
2023-02-27T18:56:25.862Z,0.80
2023-02-27T18:58:53.506Z,0.80
2023-02-27T19:01:30.098Z,0.80
2023-02-27T19:04:03.642Z,0.80
2023-02-27T19:06:34.050Z,0.80
2023-02-27T19:09:01.136Z,0.80
2023-02-27T19:11:33.558Z,0.70
2023-02-27T19:14:02.164Z,0.70
2023-02-27T19:16:29.932Z,0.70
2023-02-27T19:19:01.558Z,0.70
2023-02-27T19:21:28.761Z,0.70
2023-02-27T19:23:55.905Z,0.70
2023-02-27T19:26:24.806Z,0.70
2023-02-27T19:28:55.606Z,0.70
2023-02-27T19:31:24.410Z,0.70
2023-02-27T19:33:51.796Z,0.60
2023-02-27T19:36:21.062Z,0.60
2023-02-27T19:38:48.713Z,0.60
2023-02-27T19:41:19.356Z,0.60
2023-02-27T19:43:47.416Z,0.60
2023-02-27T19:46:24.026Z,0.60
2023-02-27T19:48:56.764Z,0.60
2023-02-27T19:51:24.188Z,0.60
2023-02-27T19:53:51.455Z,0.60
2023-02-27T19:56:24.152Z,0.60
2023-02-27T19:58:51.349Z,0.60
2023-02-27T20:01:26.817Z,0.60
2023-02-27T20:03:56.067Z,0.60
2023-02-27T20:06:26.518Z,0.60
2023-02-27T20:08:54.230Z,0.60
2023-02-27T20:11:22.390Z,0.60
2023-02-27T20:13:50.384Z,0.50
2023-02-27T20:16:19.730Z,0.50
2023-02-27T20:18:46.732Z,0.50
2023-02-27T20:21:19.887Z,0.50
2023-02-27T20:23:47.656Z,0.50
2023-02-27T20:26:18.092Z,0.50
2023-02-27T20:28:46.516Z,0.40
2023-02-27T20:31:15.353Z,0.30
2023-02-27T20:33:43.006Z,0.30
2023-02-27T20:36:11.579Z,0.20
2023-02-27T20:38:39.502Z,0.30
2023-02-27T20:41:14.125Z,0.20
2023-02-27T20:43:43.281Z,0.20
2023-02-27T20:46:12.964Z,0.10
2023-02-27T20:48:40.709Z,0.10
2023-02-27T20:51:15.916Z,0.00
2023-02-27T20:53:44.955Z,-0.10
2023-02-27T20:56:12.345Z,-0.10
2023-02-27T20:58:39.887Z,-0.20
2023-02-27T21:01:11.608Z,-0.30
2023-02-27T21:03:40.538Z,-0.30
2023-02-27T21:06:09.681Z,-0.40
2023-02-27T21:08:38.009Z,-0.40
2023-02-27T21:11:10.040Z,-0.50
2023-02-27T21:13:37.874Z,-0.60
2023-02-27T21:16:06.062Z,-0.60
2023-02-27T21:18:34.402Z,-0.70
2023-02-27T21:21:06.898Z,-0.70
2023-02-27T21:23:41.546Z,-0.70
2023-02-27T21:26:09.939Z,-0.80
2023-02-27T21:28:46.885Z,-0.80
2023-02-27T21:31:16.007Z,-0.80
2023-02-27T21:33:43.375Z,-0.90
2023-02-27T21:36:10.833Z,-0.90
2023-02-27T21:38:38.706Z,-0.90
2023-02-27T21:41:12.751Z,-0.90
2023-02-27T21:43:40.734Z,-1.00
2023-02-27T21:46:10.521Z,-1.00
2023-02-27T21:48:37.992Z,-1.10
2023-02-27T21:51:05.641Z,-1.10
2023-02-27T21:53:32.717Z,-1.10
2023-02-27T21:56:07.992Z,-1.10
2023-02-27T21:58:35.144Z,-1.10
2023-02-27T22:01:02.262Z,-1.00
2023-02-27T22:03:34.485Z,-1.00
2023-02-27T22:06:02.457Z,-1.00
2023-02-27T22:08:29.329Z,-1.00
2023-02-27T22:10:58.608Z,-0.90
2023-02-27T22:13:26.046Z,-0.90
2023-02-27T22:15:53.920Z,-0.80
2023-02-27T22:18:21.396Z,-0.80
2023-02-27T22:20:48.659Z,-0.80
2023-02-27T22:23:15.591Z,-0.70
2023-02-27T22:25:43.598Z,-0.80
2023-02-27T22:28:11.770Z,-0.80
2023-02-27T22:30:38.882Z,-0.80
2023-02-27T22:33:06.064Z,-0.90
2023-02-27T22:35:33.845Z,-0.90
2023-02-27T22:38:00.961Z,-0.90
2023-02-27T22:40:29.614Z,-1.00
2023-02-27T22:42:56.766Z,-1.00
2023-02-27T22:45:23.934Z,-1.10
2023-02-27T22:47:51.022Z,-1.10
2023-02-27T22:50:18.279Z,-1.20
2023-02-27T22:52:46.301Z,-1.20
2023-02-27T22:55:13.412Z,-1.20
2023-02-27T22:57:40.356Z,-1.30
2023-02-27T23:00:08.240Z,-1.30
2023-02-27T23:02:35.159Z,-1.30
2023-02-27T23:05:02.027Z,-1.40
2023-02-27T23:07:28.841Z,-1.40
2023-02-27T23:09:55.722Z,-1.50
2023-02-27T23:12:26.589Z,-1.50
2023-02-27T23:14:54.365Z,-1.60
2023-02-27T23:17:21.355Z,-1.60
2023-02-27T23:19:48.302Z,-1.70
2023-02-27T23:22:16.284Z,-1.70
2023-02-27T23:24:43.067Z,-1.80
2023-02-27T23:27:25.364Z,-1.80
2023-02-27T23:29:53.120Z,-1.80
2023-02-27T23:32:20.342Z,-1.90
2023-02-27T23:34:49.605Z,-1.90
2023-02-27T23:37:16.984Z,-2.00
2023-02-27T23:39:43.860Z,-2.00
2023-02-27T23:42:10.742Z,-2.00
2023-02-27T23:44:37.828Z,-2.10
2023-02-27T23:47:04.708Z,-2.10
2023-02-27T23:49:31.552Z,-2.20
2023-02-27T23:51:59.688Z,-2.20
2023-02-27T23:54:26.742Z,-2.20
2023-02-27T23:56:53.585Z,-2.30
2023-02-27T23:59:20.497Z,-2.30
